Skip Navigation Links Skip Navigation Links

Current Weather

Cameron Memorial, Cameron, Mo.

For information only: do not use for flight planning or navigation.
Latest weather
Observation time Monday, October 18, 2021 3:15 PM CDT
Local time Monday, October 18, 2021 3:36 PM CDT
Flight conditions Visual Meteorological Conditions
Winds
Wind direction South (180°)
Wind speed 14 mph
Wind gusting to 21 mph
Visibility 10 mi.
Sky condition
Ceiling unlimited
Sky clear
Temperature 74°F
Dewpoint 42°F
Altimeter 30.03 in.Hg
Derived measurements
Relative humidity 32%
Density altitude 2001 ft.
Remarks
Fully automated report.
Automated weather observing station with precipitation discriminator.
METAR KEZZ 182015Z AUTO 18012G18KT 10SM CLR 23/06 A3003 RMK AO2 T02320057

Settings

Location code

InnerDrive.Weather 4.0.6770.0 Release CLR 4.0.30319.42000
Copyright ©2018 Inner Drive Technology. All rights reserved. Portions Copyright ©1986-2018 David Braverman.

Find weather

Site navigation


Skip Navigation Links

Place info

Page info

PayPal - The safer, easier way to pay online!

Return home.

Copyright ©2021 Inner Drive Technology. Purveyors of fine, hand-crafted computer software. Page printed 2021-10-18T20:36:19 UTC.